Terminal Aerodrome Forecast
Issued by NWS

Home | Current Version | Previous Version | Text Only | Print | Product List | Glossary On
Versions: 1 2 3 4 5 6 7 8 9 10 11 12 13 14 15
074
FTUS46 KSTO 221137
TAFSCK
TAF
KSCK 221137Z 2212/2312 13035G50KT P6SM -RA BKN040
     FM221500 15020G30KT P6SM -RA OVC030
     FM221800 16015KT P6SM -SHRA OVC030
     FM222100 18010KT P6SM VCTS BKN030CB
     FM230600 23010KT P6SM -SHRA BKN040=

USA.gov is the U.S. government's official web portal to all federal, state and local government web resources and services.